sensor_id;sensor_type;location;lat;lon;timestamp;pressure;altitude;pressure_sealevel;temperature;humidity
20909;BME280;10614;53.198;6.570;2024-02-14T00:00:15;101288.59;;;6.00;100.00
20909;BME280;10614;53.198;6.570;2024-02-14T00:02:19;101285.06;;;6.01;100.00
20909;BME280;10614;53.198;6.570;2024-02-14T00:04:21;101269.47;;;5.91;100.00
20909;BME280;10614;53.198;6.570;2024-02-14T00:06:25;101260.88;;;5.85;100.00
20909;BME280;10614;53.198;6.570;2024-02-14T00:08:27;101290.28;;;6.02;100.00
20909;BME280;10614;53.198;6.570;2024-02-14T00:10:29;101244.41;;;5.78;100.00
20909;BME280;10614;53.198;6.570;2024-02-14T00:12:31;101252.16;;;5.86;100.00
20909;BME280;10614;53.198;6.570;2024-02-14T00:14:33;101265.97;;;5.97;100.00
20909;BME280;10614;53.198;6.570;2024-02-14T00:16:35;101252.09;;;5.89;100.00
20909;BME280;10614;53.198;6.570;2024-02-14T00:18:41;101263.28;;;6.02;100.00
20909;BME280;10614;53.198;6.570;2024-02-14T00:20:43;101259.78;;;6.01;100.00
20909;BME280;10614;53.198;6.570;2024-02-14T00:22:45;101232.91;;;5.91;100.00
20909;BME280;10614;53.198;6.570;2024-02-14T00:24:47;101257.16;;;6.04;100.00
20909;BME280;10614;53.198;6.570;2024-02-14T00:26:50;101248.41;;;6.05;100.00
20909;BME280;10614;53.198;6.570;2024-02-14T00:28:52;101244.09;;;6.04;100.00
20909;BME280;10614;53.198;6.570;2024-02-14T00:30:53;101239.72;;;6.05;100.00
20909;BME280;10614;53.198;6.570;2024-02-14T00:32:55;101242.41;;;6.00;100.00
20909;BME280;10614;53.198;6.570;2024-02-14T00:34:59;101233.66;;;6.01;100.00
20909;BME280;10614;53.198;6.570;2024-02-14T00:37:03;101226.72;;;6.02;100.00
20909;BME280;10614;53.198;6.570;2024-02-14T00:39:05;101225.88;;;6.00;100.00
20909;BME280;10614;53.198;6.570;2024-02-14T00:41:10;101222.41;;;5.98;100.00
20909;BME280;10614;53.198;6.570;2024-02-14T00:43:12;101224.13;;;5.99;100.00
20909;BME280;10614;53.198;6.570;2024-02-14T00:45:14;101224.97;;;5.99;100.00
20909;BME280;10614;53.198;6.570;2024-02-14T00:47:16;101218.03;;;5.98;100.00
20909;BME280;10614;53.198;6.570;2024-02-14T00:49:17;101203.19;;;6.00;100.00
20909;BME280;10614;53.198;6.570;2024-02-14T00:51:21;101209.28;;;5.99;100.00
20909;BME280;10614;53.198;6.570;2024-02-14T00:53:23;101198.00;;;5.99;100.00
20909;BME280;10614;53.198;6.570;2024-02-14T00:55:24;101210.19;;;6.00;100.00
20909;BME280;10614;53.198;6.570;2024-02-14T00:57:26;101197.06;;;6.01;100.00
20909;BME280;10614;53.198;6.570;2024-02-14T00:59:29;101198.84;;;6.01;100.00
20909;BME280;10614;53.198;6.570;2024-02-14T01:01:31;101193.59;;;6.01;100.00
20909;BME280;10614;53.198;6.570;2024-02-14T01:03:32;101186.63;;;6.01;100.00
20909;BME280;10614;53.198;6.570;2024-02-14T01:05:34;101189.28;;;6.00;100.00
20909;BME280;10614;53.198;6.570;2024-02-14T01:07:38;101182.31;;;5.99;100.00
20909;BME280;10614;53.198;6.570;2024-02-14T01:09:40;101150.22;;;5.89;100.00
20909;BME280;10614;53.198;6.570;2024-02-14T01:11:41;101173.56;;;6.01;100.00
20909;BME280;10614;53.198;6.570;2024-02-14T01:13:43;101147.59;;;5.87;100.00
20909;BME280;10614;53.198;6.570;2024-02-14T01:15:44;101173.56;;;6.01;100.00
20909;BME280;10614;53.198;6.570;2024-02-14T01:17:45;101138.13;;;5.83;100.00
20909;BME280;10614;53.198;6.570;2024-02-14T01:19:48;101163.09;;;6.01;100.00
20909;BME280;10614;53.198;6.570;2024-02-14T01:21:50;101158.72;;;6.03;100.00
20909;BME280;10614;53.198;6.570;2024-02-14T01:23:53;101166.59;;;6.02;100.00
20909;BME280;10614;53.198;6.570;2024-02-14T01:25:56;101158.78;;;6.00;100.00
20909;BME280;10614;53.198;6.570;2024-02-14T01:27:58;101161.38;;;6.02;100.00
20909;BME280;10614;53.198;6.570;2024-02-14T01:30:00;101152.63;;;6.03;100.00
20909;BME280;10614;53.198;6.570;2024-02-14T01:32:03;101143.97;;;5.99;100.00
20909;BME280;10614;53.198;6.570;2024-02-14T01:34:07;101135.38;;;5.92;100.00
20909;BME280;10614;53.198;6.570;2024-02-14T01:36:09;101144.78;;;6.03;100.00
20909;BME280;10614;53.198;6.570;2024-02-14T01:38:11;101143.91;;;6.04;100.00
20909;BME280;10614;53.198;6.570;2024-02-14T01:40:15;101148.25;;;6.06;100.00
20909;BME280;10614;53.198;6.570;2024-02-14T01:42:17;101136.91;;;6.06;100.00
20909;BME280;10614;53.198;6.570;2024-02-14T01:44:19;101139.50;;;6.07;100.00
20909;BME280;10614;53.198;6.570;2024-02-14T01:46:21;101142.09;;;6.09;100.00
20909;BME280;10614;53.198;6.570;2024-02-14T01:48:22;101140.28;;;6.11;100.00
20909;BME280;10614;53.198;6.570;2024-02-14T01:50:24;101140.28;;;6.12;100.00
20909;BME280;10614;53.198;6.570;2024-02-14T01:52:30;101129.84;;;6.11;100.00
20909;BME280;10614;53.198;6.570;2024-02-14T01:54:33;101127.19;;;6.14;100.00
20909;BME280;10614;53.198;6.570;2024-02-14T01:56:39;101134.13;;;6.15;100.00
20909;BME280;10614;53.198;6.570;2024-02-14T01:58:41;101112.59;;;6.02;100.00
20909;BME280;10614;53.198;6.570;2024-02-14T02:00:43;101103.88;;;6.02;100.00
20909;BME280;10614;53.198;6.570;2024-02-14T02:02:46;101102.97;;;6.04;100.00
20909;BME280;10614;53.198;6.570;2024-02-14T02:04:48;101114.16;;;6.11;100.00
20909;BME280;10614;53.198;6.570;2024-02-14T02:06:52;101127.06;;;6.20;100.00
20909;BME280;10614;53.198;6.570;2024-02-14T02:08:56;101119.22;;;6.20;100.00
20909;BME280;10614;53.198;6.570;2024-02-14T02:10:58;101115.69;;;6.24;100.00
20909;BME280;10614;53.198;6.570;2024-02-14T02:13:02;101111.28;;;6.26;100.00
20909;BME280;10614;53.198;6.570;2024-02-14T02:15:05;101076.78;;;6.07;100.00
20909;BME280;10614;53.198;6.570;2024-02-14T02:17:07;101107.78;;;6.27;100.00
20909;BME280;10614;53.198;6.570;2024-02-14T02:19:15;101107.78;;;6.27;100.00
20909;BME280;10614;53.198;6.570;2024-02-14T02:21:17;101100.00;;;6.24;100.00
20909;BME280;10614;53.198;6.570;2024-02-14T02:23:26;101104.25;;;6.30;100.00
20909;BME280;10614;53.198;6.570;2024-02-14T02:25:28;101076.59;;;6.18;100.00
20909;BME280;10614;53.198;6.570;2024-02-14T02:27:30;101104.19;;;6.33;100.00
20909;BME280;10614;53.198;6.570;2024-02-14T02:29:32;101099.81;;;6.33;100.00
20909;BME280;10614;53.198;6.570;2024-02-14T02:31:35;101098.13;;;6.32;100.00
20909;BME280;10614;53.198;6.570;2024-02-14T02:33:38;101091.06;;;6.36;100.00
20909;BME280;10614;53.198;6.570;2024-02-14T02:35:41;101088.44;;;6.36;100.00
20909;BME280;10614;53.198;6.570;2024-02-14T02:37:44;101078.97;;;6.30;100.00
20909;BME280;10614;53.198;6.570;2024-02-14T02:39:50;101086.59;;;6.41;100.00
20909;BME280;10614;53.198;6.570;2024-02-14T02:41:52;101068.53;;;6.30;100.00
20909;BME280;10614;53.198;6.570;2024-02-14T02:43:57;101079.59;;;6.43;100.00
20909;BME280;10614;53.198;6.570;2024-02-14T02:46:00;101083.94;;;6.44;100.00
20909;BME280;10614;53.198;6.570;2024-02-14T02:48:02;101067.50;;;6.39;100.00
20909;BME280;10614;53.198;6.570;2024-02-14T02:50:06;101084.78;;;6.46;100.00
20909;BME280;10614;53.198;6.570;2024-02-14T02:52:08;101082.13;;;6.48;100.00
20909;BME280;10614;53.198;6.570;2024-02-14T02:54:10;101083.03;;;6.47;100.00
20909;BME280;10614;53.198;6.570;2024-02-14T02:56:14;101057.94;;;6.37;100.00
20909;BME280;10614;53.198;6.570;2024-02-14T02:58:17;101070.78;;;6.49;100.00
20909;BME280;10614;53.198;6.570;2024-02-14T03:00:21;101076.84;;;6.51;100.00
20909;BME280;10614;53.198;6.570;2024-02-14T03:02:23;101044.81;;;6.40;100.00
20909;BME280;10614;53.198;6.570;2024-02-14T03:04:26;101064.56;;;6.54;100.00
20909;BME280;10614;53.198;6.570;2024-02-14T03:06:28;101075.00;;;6.56;100.00
20909;BME280;10614;53.198;6.570;2024-02-14T03:08:30;101062.84;;;6.53;100.00
20909;BME280;10614;53.198;6.570;2024-02-14T03:10:31;101070.59;;;6.58;100.00
20909;BME280;10614;53.198;6.570;2024-02-14T03:12:34;101061.78;;;6.62;100.00
20909;BME280;10614;53.198;6.570;2024-02-14T03:14:36;101066.97;;;6.65;100.00
20909;BME280;10614;53.198;6.570;2024-02-14T03:16:39;101061.75;;;6.64;100.00
20909;BME280;10614;53.198;6.570;2024-02-14T03:18:41;101064.38;;;6.65;100.00
20909;BME280;10614;53.198;6.570;2024-02-14T03:20:43;101057.38;;;6.66;100.00
20909;BME280;10614;53.198;6.570;2024-02-14T03:22:44;101060.75;;;6.69;100.00
20909;BME280;10614;53.198;6.570;2024-02-14T03:24:48;101061.69;;;6.68;100.00
20909;BME280;10614;53.198;6.570;2024-02-14T03:26:50;101067.72;;;6.72;100.00
20909;BME280;10614;53.198;6.570;2024-02-14T03:28:55;101063.28;;;6.74;100.00
20909;BME280;10614;53.198;6.570;2024-02-14T03:30:57;101060.66;;;6.75;100.00
20909;BME280;10614;53.198;6.570;2024-02-14T03:32:59;101062.38;;;6.76;100.00
20909;BME280;10614;53.198;6.570;2024-02-14T03:35:00;101056.25;;;6.78;100.00
20909;BME280;10614;53.198;6.570;2024-02-14T03:37:02;101032.97;;;6.65;100.00
20909;BME280;10614;53.198;6.570;2024-02-14T03:39:05;101064.00;;;6.82;100.00
20909;BME280;10614;53.198;6.570;2024-02-14T03:41:06;101066.63;;;6.82;100.00
20909;BME280;10614;53.198;6.570;2024-02-14T03:43:09;101060.38;;;6.88;100.00
20909;BME280;10614;53.198;6.570;2024-02-14T03:45:13;101056.84;;;6.90;100.00
20909;BME280;10614;53.198;6.570;2024-02-14T03:47:14;101055.06;;;6.92;100.00
20909;BME280;10614;53.198;6.570;2024-02-14T03:49:16;101058.50;;;6.94;100.00
20909;BME280;10614;53.198;6.570;2024-02-14T03:51:18;101036.06;;;6.84;100.00
20909;BME280;10614;53.198;6.570;2024-02-14T03:53:23;101054.91;;;7.00;100.00
20909;BME280;10614;53.198;6.570;2024-02-14T03:55:25;101044.44;;;7.00;100.00
20909;BME280;10614;53.198;6.570;2024-02-14T03:57:30;101056.53;;;7.04;100.00
20909;BME280;10614;53.198;6.570;2024-02-14T03:59:36;101043.63;;;6.96;100.00
20909;BME280;10614;53.198;6.570;2024-02-14T04:01:45;101059.13;;;7.07;100.00
20909;BME280;10614;53.198;6.570;2024-02-14T04:03:47;101048.75;;;7.03;100.00
20909;BME280;10614;53.198;6.570;2024-02-14T04:05:52;101053.72;;;7.13;100.00
20909;BME280;10614;53.198;6.570;2024-02-14T04:07:54;101049.41;;;7.12;100.00
20909;BME280;10614;53.198;6.570;2024-02-14T04:09:56;101034.72;;;7.05;100.00
20909;BME280;10614;53.198;6.570;2024-02-14T04:11:58;101062.34;;;7.18;100.00
20909;BME280;10614;53.198;6.570;2024-02-14T04:14:01;101054.47;;;7.20;100.00
20909;BME280;10614;53.198;6.570;2024-02-14T04:16:03;101055.38;;;7.19;100.00
20909;BME280;10614;53.198;6.570;2024-02-14T04:18:06;101065.78;;;7.21;100.00
20909;BME280;10614;53.198;6.570;2024-02-14T04:20:09;101063.16;;;7.21;100.00
20909;BME280;10614;53.198;6.570;2024-02-14T04:22:10;101065.72;;;7.24;100.00
20909;BME280;10614;53.198;6.570;2024-02-14T04:24:13;101063.91;;;7.26;100.00
20909;BME280;10614;53.198;6.570;2024-02-14T04:26:19;101060.41;;;7.27;100.00
20909;BME280;10614;53.198;6.570;2024-02-14T04:28:21;101060.41;;;7.27;100.00
20909;BME280;10614;53.198;6.570;2024-02-14T04:30:23;101069.06;;;7.30;100.00
20909;BME280;10614;53.198;6.570;2024-02-14T04:32:25;101059.38;;;7.34;100.00
20909;BME280;10614;53.198;6.570;2024-02-14T04:34:29;101070.72;;;7.34;100.00
20909;BME280;10614;53.198;6.570;2024-02-14T04:36:31;101071.47;;;7.39;100.00
20909;BME280;10614;53.198;6.570;2024-02-14T04:38:35;101063.66;;;7.38;100.00
20909;BME280;10614;53.198;6.570;2024-02-14T04:40:36;101064.44;;;7.42;100.00
20909;BME280;10614;53.198;6.570;2024-02-14T04:42:38;101068.78;;;7.43;100.00
20909;BME280;10614;53.198;6.570;2024-02-14T04:44:40;101079.09;;;7.49;100.00
20909;BME280;10614;53.198;6.570;2024-02-14T04:46:42;101074.75;;;7.49;100.00
20909;BME280;10614;53.198;6.570;2024-02-14T04:48:45;101080.88;;;7.48;100.00
20909;BME280;10614;53.198;6.570;2024-02-14T04:50:48;101076.38;;;7.53;100.00
20909;BME280;10614;53.198;6.570;2024-02-14T04:52:50;101075.38;;;7.59;100.00
20909;BME280;10614;53.198;6.570;2024-02-14T04:54:52;101059.88;;;7.50;100.00
20909;BME280;10614;53.198;6.570;2024-02-14T04:56:54;101082.22;;;7.65;100.00
20909;BME280;10614;53.198;6.570;2024-02-14T04:58:56;101082.19;;;7.66;100.00
20909;BME280;10614;53.198;6.570;2024-02-14T05:00:58;101076.13;;;7.64;100.00
20909;BME280;10614;53.198;6.570;2024-02-14T05:03:02;101087.34;;;7.69;100.00
20909;BME280;10614;53.198;6.570;2024-02-14T05:05:04;101088.97;;;7.75;100.00
20909;BME280;10614;53.198;6.570;2024-02-14T05:07:07;101070.91;;;7.63;100.00
20909;BME280;10614;53.198;6.570;2024-02-14T05:09:09;101088.06;;;7.76;100.00
20909;BME280;10614;53.198;6.570;2024-02-14T05:11:11;101092.38;;;7.78;100.00
20909;BME280;10614;53.198;6.570;2024-02-14T05:13:13;101088.06;;;7.77;100.00
20909;BME280;10614;53.198;6.570;2024-02-14T05:15:16;101091.44;;;7.81;100.00
20909;BME280;10614;53.198;6.570;2024-02-14T05:17:18;101097.41;;;7.86;100.00
20909;BME280;10614;53.198;6.570;2024-02-14T05:19:20;101101.81;;;7.86;100.00
20909;BME280;10614;53.198;6.570;2024-02-14T05:21:22;101087.13;;;7.78;100.00
20909;BME280;10614;53.198;6.570;2024-02-14T05:23:26;101099.16;;;7.87;100.00
20909;BME280;10614;53.198;6.570;2024-02-14T05:25:28;101106.94;;;7.90;100.00
20909;BME280;10614;53.198;6.570;2024-02-14T05:27:33;101106.03;;;7.91;100.00
20909;BME280;10614;53.198;6.570;2024-02-14T05:29:35;101108.66;;;7.91;100.00
20909;BME280;10614;53.198;6.570;2024-02-14T05:31:44;101105.16;;;7.91;100.00
20909;BME280;10614;53.198;6.570;2024-02-14T05:33:46;101118.25;;;7.92;100.00
20909;BME280;10614;53.198;6.570;2024-02-14T05:35:48;101113.88;;;7.93;100.00
20909;BME280;10614;53.198;6.570;2024-02-14T05:37:50;101116.47;;;7.93;100.00
20909;BME280;10614;53.198;6.570;2024-02-14T05:39:54;101124.31;;;7.94;100.00
20909;BME280;10614;53.198;6.570;2024-02-14T05:41:56;101117.31;;;7.95;100.00
20909;BME280;10614;53.198;6.570;2024-02-14T05:43:58;101115.53;;;7.95;100.00
20909;BME280;10614;53.198;6.570;2024-02-14T05:46:00;101102.72;;;7.85;100.00
20909;BME280;10614;53.198;6.570;2024-02-14T05:48:02;101117.34;;;7.93;100.00
20909;BME280;10614;53.198;6.570;2024-02-14T05:50:08;101127.72;;;7.98;100.00
20909;BME280;10614;53.198;6.570;2024-02-14T05:52:11;101118.91;;;8.00;100.00
20909;BME280;10614;53.198;6.570;2024-02-14T05:54:15;101126.75;;;8.02;100.00
20909;BME280;10614;53.198;6.570;2024-02-14T05:56:18;101125.88;;;8.01;100.00
20909;BME280;10614;53.198;6.570;2024-02-14T05:58:20;101127.59;;;8.02;100.00
20909;BME280;10614;53.198;6.570;2024-02-14T06:00:22;101131.97;;;8.03;100.00
20909;BME280;10614;53.198;6.570;2024-02-14T06:02:24;101135.44;;;8.04;100.00
20909;BME280;10614;53.198;6.570;2024-02-14T06:04:26;101116.41;;;7.96;100.00
20909;BME280;10614;53.198;6.570;2024-02-14T06:06:29;101138.81;;;8.09;100.00
20909;BME280;10614;53.198;6.570;2024-02-14T06:08:31;101142.34;;;8.08;100.00
20909;BME280;10614;53.198;6.570;2024-02-14T06:10:33;101140.59;;;8.07;100.00
20909;BME280;10614;53.198;6.570;2024-02-14T06:12:37;101132.84;;;8.02;100.00
20909;BME280;10614;53.198;6.570;2024-02-14T06:14:40;101145.78;;;8.10;100.00
20909;BME280;10614;53.198;6.570;2024-02-14T06:16:42;101130.19;;;8.04;100.00
20909;BME280;10614;53.198;6.570;2024-02-14T06:18:45;101150.03;;;8.14;100.00
20909;BME280;10614;53.198;6.570;2024-02-14T06:20:47;101163.97;;;8.16;100.00
20909;BME280;10614;53.198;6.570;2024-02-14T06:22:48;101125.97;;;7.98;100.00
20909;BME280;10614;53.198;6.570;2024-02-14T06:24:51;101142.25;;;8.11;100.00
20909;BME280;10614;53.198;6.570;2024-02-14T06:26:53;101162.16;;;8.20;100.00
20909;BME280;10614;53.198;6.570;2024-02-14T06:28:57;101157.66;;;8.23;100.00
20909;BME280;10614;53.198;6.570;2024-02-14T06:30:59;101160.25;;;8.25;100.00
20909;BME280;10614;53.198;6.570;2024-02-14T06:33:02;101165.59;;;8.22;100.00
20909;BME280;10614;53.198;6.570;2024-02-14T06:35:04;101150.66;;;8.24;100.00
20909;BME280;10614;53.198;6.570;2024-02-14T06:37:06;101168.88;;;8.30;100.00
20909;BME280;10614;53.198;6.570;2024-02-14T06:39:12;101159.34;;;8.26;100.00
20909;BME280;10614;53.198;6.570;2024-02-14T06:41:13;101160.06;;;8.33;100.00
20909;BME280;10614;53.198;6.570;2024-02-14T06:43:16;101160.03;;;8.34;100.00
20909;BME280;10614;53.198;6.570;2024-02-14T06:45:19;101166.09;;;8.36;100.00
20909;BME280;10614;53.198;6.570;2024-02-14T06:47:20;101166.00;;;8.41;100.00
20909;BME280;10614;53.198;6.570;2024-02-14T06:49:23;101172.81;;;8.48;100.00
20909;BME280;10614;53.198;6.570;2024-02-14T06:51:28;101173.72;;;8.47;100.00
20909;BME280;10614;53.198;6.570;2024-02-14T06:53:30;101164.34;;;8.35;100.00
20909;BME280;10614;53.198;6.570;2024-02-14T06:55:33;101175.47;;;8.47;100.00
20909;BME280;10614;53.198;6.570;2024-02-14T06:57:35;101185.72;;;8.56;100.00
20909;BME280;10614;53.198;6.570;2024-02-14T06:59:39;101167.81;;;8.37;100.00
20909;BME280;10614;53.198;6.570;2024-02-14T07:01:44;101194.53;;;8.55;100.00
20909;BME280;10614;53.198;6.570;2024-02-14T07:03:45;101196.19;;;8.57;100.00
20909;BME280;10614;53.198;6.570;2024-02-14T07:05:47;101201.50;;;8.54;100.00
20909;BME280;10614;53.198;6.570;2024-02-14T07:07:49;101205.69;;;8.61;100.00
20909;BME280;10614;53.198;6.570;2024-02-14T07:09:50;101218.94;;;8.57;100.00
20909;BME280;10614;53.198;6.570;2024-02-14T07:11:52;101219.84;;;8.56;100.00
20909;BME280;10614;53.198;6.570;2024-02-14T07:13:56;101214.38;;;8.65;100.00
20909;BME280;10614;53.198;6.570;2024-02-14T07:15:59;101224.00;;;8.64;100.00
20909;BME280;10614;53.198;6.570;2024-02-14T07:18:02;101231.09;;;8.61;100.00
20909;BME280;10614;53.198;6.570;2024-02-14T07:20:06;101213.94;;;8.48;100.00
20909;BME280;10614;53.198;6.570;2024-02-14T07:22:09;101236.31;;;8.61;100.00
20909;BME280;10614;53.198;6.570;2024-02-14T07:24:11;101222.50;;;8.54;100.00
20909;BME280;10614;53.198;6.570;2024-02-14T07:26:13;101237.06;;;8.66;100.00
20909;BME280;10614;53.198;6.570;2024-02-14T07:28:17;101229.19;;;8.66;100.00
20909;BME280;10614;53.198;6.570;2024-02-14T07:30:19;101220.66;;;8.59;100.00
20909;BME280;10614;53.198;6.570;2024-02-14T07:32:21;101240.50;;;8.70;100.00
20909;BME280;10614;53.198;6.570;2024-02-14T07:34:24;101249.19;;;8.72;100.00
20909;BME280;10614;53.198;6.570;2024-02-14T07:36:27;101243.03;;;8.73;100.00
20909;BME280;10614;53.198;6.570;2024-02-14T07:38:29;101234.50;;;8.64;100.00
20909;BME280;10614;53.198;6.570;2024-02-14T07:40:31;101237.19;;;8.61;100.00
20909;BME280;10614;53.198;6.570;2024-02-14T07:42:33;101230.34;;;8.56;100.00
20909;BME280;10614;53.198;6.570;2024-02-14T07:44:36;101252.69;;;8.71;100.00
20909;BME280;10614;53.198;6.570;2024-02-14T07:46:36;101249.22;;;8.70;100.00
20909;BME280;10614;53.198;6.570;2024-02-14T07:48:39;101259.78;;;8.69;100.00
20909;BME280;10614;53.198;6.570;2024-02-14T07:50:42;101268.50;;;8.69;100.00
20909;BME280;10614;53.198;6.570;2024-02-14T07:52:45;101249.38;;;8.64;100.00
20909;BME280;10614;53.198;6.570;2024-02-14T07:54:47;101247.53;;;8.68;100.00
20909;BME280;10614;53.198;6.570;2024-02-14T07:56:48;101254.56;;;8.67;100.00
20909;BME280;10614;53.198;6.570;2024-02-14T07:58:50;101264.09;;;8.71;100.00
20909;BME280;10614;53.198;6.570;2024-02-14T08:00:51;101263.16;;;8.72;100.00
20909;BME280;10614;53.198;6.570;2024-02-14T08:02:53;101264.03;;;8.73;100.00
20909;BME280;10614;53.198;6.570;2024-02-14T08:04:55;101246.81;;;8.61;100.00
20909;BME280;10614;53.198;6.570;2024-02-14T08:06:59;101268.41;;;8.72;100.00
20909;BME280;10614;53.198;6.570;2024-02-14T08:09:01;101248.59;;;8.60;100.00
20909;BME280;10614;53.198;6.570;2024-02-14T08:11:07;101277.09;;;8.76;100.00
20909;BME280;10614;53.198;6.570;2024-02-14T08:13:09;101269.22;;;8.76;100.00
20909;BME280;10614;53.198;6.570;2024-02-14T08:15:11;101277.03;;;8.77;100.00
20909;BME280;10614;53.198;6.570;2024-02-14T08:17:13;101251.94;;;8.67;100.00
20909;BME280;10614;53.198;6.570;2024-02-14T08:19:15;101275.22;;;8.79;100.00
20909;BME280;10614;53.198;6.570;2024-02-14T08:21:17;101253.72;;;8.65;100.00
20909;BME280;10614;53.198;6.570;2024-02-14T08:23:19;101282.97;;;8.85;100.00
20909;BME280;10614;53.198;6.570;2024-02-14T08:25:21;101281.16;;;8.87;100.00
20909;BME280;10614;53.198;6.570;2024-02-14T08:27:23;101282.03;;;8.86;100.00
20909;BME280;10614;53.198;6.570;2024-02-14T08:29:24;101269.00;;;8.83;100.00
20909;BME280;10614;53.198;6.570;2024-02-14T08:31:27;101285.47;;;8.90;100.00
20909;BME280;10614;53.198;6.570;2024-02-14T08:33:29;101264.47;;;8.90;100.00
20909;BME280;10614;53.198;6.570;2024-02-14T08:35:31;101265.22;;;8.94;100.00
20909;BME280;10614;53.198;6.570;2024-02-14T08:37:33;101266.19;;;8.90;100.00
20909;BME280;10614;53.198;6.570;2024-02-14T08:39:38;101263.44;;;8.96;100.00
20909;BME280;10614;53.198;6.570;2024-02-14T08:41:43;101279.91;;;9.01;100.00
20909;BME280;10614;53.198;6.570;2024-02-14T08:43:47;101268.72;;;8.94;100.00
20909;BME280;10614;53.198;6.570;2024-02-14T08:45:49;101270.41;;;8.97;100.00
20909;BME280;10614;53.198;6.570;2024-02-14T08:47:52;101275.50;;;9.03;100.00
20909;BME280;10614;53.198;6.570;2024-02-14T08:49:53;101284.06;;;9.09;100.00
20909;BME280;10614;53.198;6.570;2024-02-14T08:51:55;101288.38;;;9.12;100.00
20909;BME280;10614;53.198;6.570;2024-02-14T08:53:58;101289.16;;;9.16;100.00
20909;BME280;10614;53.198;6.570;2024-02-14T08:56:01;101267.47;;;9.09;100.00
20909;BME280;10614;53.198;6.570;2024-02-14T08:58:04;101290.91;;;9.15;100.00
20909;BME280;10614;53.198;6.570;2024-02-14T09:00:07;101287.41;;;9.16;100.00
20909;BME280;10614;53.198;6.570;2024-02-14T09:02:11;101287.31;;;9.19;100.00
20909;BME280;10614;53.198;6.570;2024-02-14T09:04:13;101298.66;;;9.20;100.00
20909;BME280;10614;53.198;6.570;2024-02-14T09:06:16;101296.09;;;9.18;100.00
20909;BME280;10614;53.198;6.570;2024-02-14T09:08:19;101289.22;;;9.13;100.00
20909;BME280;10614;53.198;6.570;2024-02-14T09:10:21;101279.66;;;9.10;100.00
20909;BME280;10614;53.198;6.570;2024-02-14T09:12:24;101295.25;;;9.18;100.00
20909;BME280;10614;53.198;6.570;2024-02-14T09:14:25;101287.56;;;9.10;100.00
20909;BME280;10614;53.198;6.570;2024-02-14T09:16:27;101301.25;;;9.21;100.00
20909;BME280;10614;53.198;6.570;2024-02-14T09:18:29;101290.16;;;9.12;100.00
20909;BME280;10614;53.198;6.570;2024-02-14T09:20:32;101293.72;;;9.09;100.00
20909;BME280;10614;53.198;6.570;2024-02-14T09:22:35;101295.41;;;9.12;100.00
20909;BME280;10614;53.198;6.570;2024-02-14T09:24:38;101308.22;;;9.22;100.00
20909;BME280;10614;53.198;6.570;2024-02-14T09:26:40;101313.41;;;9.25;100.00
20909;BME280;10614;53.198;6.570;2024-02-14T09:28:45;101304.63;;;9.26;100.00
20909;BME280;10614;53.198;6.570;2024-02-14T09:30:47;101315.06;;;9.29;100.00
20909;BME280;10614;53.198;6.570;2024-02-14T09:32:49;101304.50;;;9.31;100.00
20909;BME280;10614;53.198;6.570;2024-02-14T09:34:52;101291.56;;;9.25;100.00
20909;BME280;10614;53.198;6.570;2024-02-14T09:36:54;101281.97;;;9.22;100.00
20909;BME280;10614;53.198;6.570;2024-02-14T09:38:57;101311.28;;;9.40;100.00
20909;BME280;10614;53.198;6.570;2024-02-14T09:41:05;101308.56;;;9.43;100.00
20909;BME280;10614;53.198;6.570;2024-02-14T09:43:13;101315.47;;;9.45;100.00
20909;BME280;10614;53.198;6.570;2024-02-14T09:45:20;101324.16;;;9.49;100.00
20909;BME280;10614;53.198;6.570;2024-02-14T09:47:23;101319.84;;;9.46;100.00
20909;BME280;10614;53.198;6.570;2024-02-14T09:49:26;101316.44;;;9.43;100.00
20909;BME280;10614;53.198;6.570;2024-02-14T09:51:29;101318.94;;;9.47;100.00
20909;BME280;10614;53.198;6.570;2024-02-14T09:53:32;101304.38;;;9.36;100.00
20909;BME280;10614;53.198;6.570;2024-02-14T09:55:34;101330.53;;;9.40;100.00
20909;BME280;10614;53.198;6.570;2024-02-14T09:57:36;101329.56;;;9.43;100.00
20909;BME280;10614;53.198;6.570;2024-02-14T09:59:39;101314.06;;;9.34;100.00
20909;BME280;10614;53.198;6.570;2024-02-14T10:01:43;101340.91;;;9.45;100.00
20909;BME280;10614;53.198;6.570;2024-02-14T10:03:46;101331.38;;;9.41;100.00
20909;BME280;10614;53.198;6.570;2024-02-14T10:05:48;101326.09;;;9.42;100.00
20909;BME280;10614;53.198;6.570;2024-02-14T10:07:50;101320.22;;;9.33;100.00
20909;BME280;10614;53.198;6.570;2024-02-14T10:09:52;101329.63;;;9.41;100.00
20909;BME280;10614;53.198;6.570;2024-02-14T10:11:54;101344.25;;;9.50;100.00
20909;BME280;10614;53.198;6.570;2024-02-14T10:13:58;101348.69;;;9.48;100.00
20909;BME280;10614;53.198;6.570;2024-02-14T10:16:03;101350.34;;;9.52;100.00
20909;BME280;10614;53.198;6.570;2024-02-14T10:18:09;101343.38;;;9.51;100.00
20909;BME280;10614;53.198;6.570;2024-02-14T10:20:17;101341.69;;;9.48;100.00
20909;BME280;10614;53.198;6.570;2024-02-14T10:22:19;101351.19;;;9.52;100.00
20909;BME280;10614;53.198;6.570;2024-02-14T10:24:21;101342.47;;;9.52;100.00
20909;BME280;10614;53.198;6.570;2024-02-14T10:26:23;101347.56;;;9.58;100.00
20909;BME280;10614;53.198;6.570;2024-02-14T10:28:25;101332.03;;;9.49;100.00
20909;BME280;10614;53.198;6.570;2024-02-14T10:30:27;101348.38;;;9.60;100.00
20909;BME280;10614;53.198;6.570;2024-02-14T10:32:29;101350.91;;;9.63;100.00
20909;BME280;10614;53.198;6.570;2024-02-14T10:34:33;101350.88;;;9.65;100.00
20909;BME280;10614;53.198;6.570;2024-02-14T10:36:38;101348.31;;;9.62;100.00
20909;BME280;10614;53.198;6.570;2024-02-14T10:38:43;101345.75;;;9.60;100.00
20909;BME280;10614;53.198;6.570;2024-02-14T10:40:48;101364.97;;;9.62;100.00